首页
METAR-TAF:

METAR-TAF

机场 :

Quakertown Airport

Quakertown, 宾夕法尼亚州, 美国

纬度: 40-26-06N, 经度: 075-22-54W, 海拔: 160米

当前天气观测

该预报发布于16分钟前的08:15 UTC
静风
温度 7°C
湿度 100%
气压 1015 hPa
能見度: 16.1公里
阴天层高于2600英尺

METAR: KUKT 310815Z AUTO 00000KT 10SM OVC026 07/07 A2996 RMK A01

时间: 04:31 (08:31 UTC)


TAF: 丢失

超过4000个机场的气象观测和天气预报(METAR&TAF报告)。

可查询的气象台以黄色和红色小点在地图上表示。

将鼠标移到小点上方,可查看气象台名称。

然后点击查看天气观测和预报。

如需切换地图:点击带黑十字的绿色按钮放大地图;点击带横线的绿色按钮缩小地图;或者点击绿色箭头查看邻近地区的地图。


METAR-TAF: